Time;durP1;ratioP1;P1;durP2;ratioP2;P2;SDS_P1;SDS_P2;PMS_P1;PMS_P2;Temp;Humidity;BMP_temperature;BMP_pressure;BME280_temperature;BME280_humidity;BME280_pressure;Samples;Min_cycle;Max_cycle;Signal;HPM_P1;HPM_P2
2022/10/20 00:00:49;;;;;;;24.42;6.32;;;;;;;7.49;77.37;100325.06;4841879;28;20088;-63
2022/10/20 00:03:35;;;;;;;36.05;8.63;;;;;;;7.54;76.75;100314.66;4874359;28;20057;-63
2022/10/20 00:06:23;;;;;;;29.77;9.07;;;;;;;7.56;76.92;100325.88;4836830;28;20065;-64
2022/10/20 00:09:14;;;;;;;19.23;6.90;;;;;;;7.62;76.31;100331.09;4853763;28;20049;-63
2022/10/20 00:12:15;;;;;;;33.72;8.63;;;;;;;7.67;75.37;100333.69;4888805;28;20065;-64
2022/10/20 00:15:20;;;;;;;26.67;9.30;;;;;;;7.66;74.86;100332.81;4902186;28;20045;-64
2022/10/20 00:18:19;;;;;;;27.60;10.05;;;;;;;7.65;75.15;100341.47;4859043;28;20049;-64
2022/10/20 00:20:55;;;;;;;22.67;8.48;;;;;;;7.69;75.03;100338.00;4852338;28;20044;-64
2022/10/20 00:23:47;;;;;;;28.83;8.55;;;;;;;7.74;74.86;100336.25;4830036;28;20039;-63
2022/10/20 00:26:52;;;;;;;21.83;7.40;;;;;;;7.72;74.58;100311.97;4830347;28;20081;-63
2022/10/20 00:32:41;;;;;;;28.05;7.53;;;;;;;7.76;74.41;100318.91;4863287;28;20069;-64
2022/10/20 00:35:25;;;;;;;21.73;6.85;;;;;;;7.81;74.17;100310.19;4869807;28;20196;-64
2022/10/20 00:38:01;;;;;;;25.52;6.88;;;;;;;7.87;74.43;100297.19;4859536;28;20210;-64
2022/10/20 00:40:50;;;;;;;15.77;5.13;;;;;;;7.98;73.75;100288.44;4845602;28;21387;-64
2022/10/20 00:43:50;;;;;;;27.33;4.95;;;;;;;8.25;73.45;100277.88;4908515;28;20303;-63
2022/10/20 00:46:40;;;;;;;10.63;3.55;;;;;;;8.31;72.72;100243.97;4839480;28;20055;-64
2022/10/20 00:49:37;;;;;;;11.50;2.95;;;;;;;8.59;70.83;100261.16;4882188;28;20049;-64
2022/10/20 00:52:39;;;;;;;12.73;2.85;;;;;;;8.75;69.19;100255.81;4898884;28;20059;-63
2022/10/20 00:55:43;;;;;;;5.85;2.65;;;;;;;8.99;68.18;100249.50;4928028;28;20063;-64
2022/10/20 00:58:44;;;;;;;5.45;2.20;;;;;;;9.19;66.56;100236.28;4900079;28;20050;-64
2022/10/20 01:01:34;;;;;;;10.30;2.30;;;;;;;9.39;65.50;100229.06;4908433;28;20040;-65
2022/10/20 01:04:26;;;;;;;6.53;1.88;;;;;;;9.67;63.68;100233.94;4909507;28;20051;-63
2022/10/20 01:07:15;;;;;;;5.55;1.80;;;;;;;9.69;62.06;100200.88;4911273;28;20068;-64
2022/10/20 01:10:01;;;;;;;5.55;1.88;;;;;;;9.81;61.38;100221.56;4896302;28;20262;-64
2022/10/20 01:12:50;;;;;;;6.10;1.90;;;;;;;9.74;61.91;100209.50;4900582;28;20041;-65
2022/10/20 01:15:32;;;;;;;7.38;2.50;;;;;;;9.24;61.19;100119.75;4879988;28;20061;-63
2022/10/20 01:18:26;;;;;;;7.70;2.13;;;;;;;9.92;61.14;100208.38;4866453;28;20267;-64
2022/10/20 01:21:37;;;;;;;7.70;1.92;;;;;;;10.09;60.08;100201.16;4886441;28;20049;-66
2022/10/20 01:25:05;;;;;;;9.20;2.58;;;;;;;10.13;59.26;100207.16;4907566;28;20048;-63
2022/10/20 01:28:07;;;;;;;11.23;2.47;;;;;;;10.21;59.69;100194.88;4879246;28;20120;-64
2022/10/20 01:31:04;;;;;;;6.13;2.00;;;;;;;10.34;59.20;100191.19;4910378;28;20050;-63
2022/10/20 01:33:58;;;;;;;4.10;1.85;;;;;;;10.54;58.77;100197.84;4855233;28;20049;-64
2022/10/20 01:37:00;;;;;;;9.23;1.88;;;;;;;10.59;57.99;100185.56;4888969;28;20113;-65
2022/10/20 01:39:56;;;;;;;11.90;2.15;;;;;;;10.66;56.30;100176.72;4895095;28;20106;-64
2022/10/20 01:42:45;;;;;;;6.50;2.40;;;;;;;10.73;57.63;100173.13;4914652;28;20101;-64
2022/10/20 01:45:35;;;;;;;9.23;2.28;;;;;;;10.82;57.83;100166.00;4909185;28;20045;-66
2022/10/20 01:51:18;;;;;;;5.07;2.25;;;;;;;11.04;56.66;100188.22;4911798;28;20064;-63
2022/10/20 01:53:57;;;;;;;7.47;2.25;;;;;;;11.17;55.69;100194.91;4846863;28;21293;-64
2022/10/20 02:03:17;;;;;;;8.88;2.35;;;;;;;11.51;55.66;100175.06;4892777;28;20117;-64
2022/10/20 02:06:09;;;;;;;4.72;1.63;;;;;;;11.56;52.37;100171.44;4857669;28;20285;-63
2022/10/20 02:08:59;;;;;;;12.90;2.00;;;;;;;11.79;48.90;100188.38;4847604;28;20050;-64
2022/10/20 02:11:48;;;;;;;5.25;1.80;;;;;;;11.90;51.31;100178.56;4879141;28;20090;-64
2022/10/20 02:14:45;;;;;;;8.15;2.08;;;;;;;11.93;49.80;100175.00;4844068;28;20076;-63
2022/10/20 02:20:57;;;;;;;3.90;2.05;;;;;;;12.00;45.77;100187.06;4881204;28;20079;-64
2022/10/20 02:23:38;;;;;;;2.35;1.30;;;;;;;12.05;46.69;100196.50;4869157;28;20128;-64
2022/10/20 02:26:21;;;;;;;5.35;1.23;;;;;;;12.16;45.12;100192.81;4906268;28;20082;-63
2022/10/20 02:29:15;;;;;;;2.75;1.20;;;;;;;12.09;43.38;100192.94;4889830;28;20072;-63
2022/10/20 02:31:56;;;;;;;5.82;1.33;;;;;;;11.96;44.25;100160.09;4887796;28;20044;-62
2022/10/20 02:34:35;;;;;;;8.80;1.30;;;;;;;12.20;44.67;100190.06;4893909;28;20835;-63
2022/10/20 02:37:24;;;;;;;2.85;1.38;;;;;;;12.24;44.39;100196.09;4778237;28;20061;-63
2022/10/20 02:39:59;;;;;;;3.83;1.70;;;;;;;12.19;41.90;100177.00;4773693;28;20695;-63
2022/10/20 02:42:46;;;;;;;2.95;1.55;;;;;;;12.29;43.21;100173.25;4817605;28;20106;-63
2022/10/20 02:45:27;;;;;;;3.85;2.13;;;;;;;12.27;40.80;100185.53;4831986;28;20055;-63
2022/10/20 02:48:10;;;;;;;10.13;1.63;;;;;;;12.00;38.81;100151.25;4802644;29;20064;-64
2022/10/20 02:50:55;;;;;;;6.25;1.50;;;;;;;12.26;40.19;100179.44;4839344;28;20043;-64
2022/10/20 02:53:42;;;;;;;2.58;1.45;;;;;;;12.27;40.39;100182.91;4793258;28;20070;-64
2022/10/20 02:56:33;;;;;;;7.03;1.52;;;;;;;12.28;40.69;100182.00;4830266;28;20055;-64
2022/10/20 02:59:15;;;;;;;5.10;1.42;;;;;;;12.30;40.77;100180.22;4801779;29;20064;-62
2022/10/20 03:01:54;;;;;;;3.33;1.65;;;;;;;12.35;39.80;100180.09;4800021;28;20047;-64
2022/10/20 03:10:40;;;;;;;1.95;1.17;;;;;;;12.41;41.69;100172.97;4803767;28;20057;-63
2022/10/20 03:13:21;;;;;;;4.20;1.17;;;;;;;12.44;41.70;100175.50;4811729;28;20312;-63
2022/10/20 03:16:11;;;;;;;7.03;1.20;;;;;;;12.49;41.39;100180.63;4784751;28;20056;-64
2022/10/20 03:19:01;;;;;;;6.93;1.50;;;;;;;12.43;39.62;100171.16;4795279;28;20066;-64
2022/10/20 03:21:45;;;;;;;4.13;1.58;;;;;;;12.43;38.82;100163.31;4839036;28;20049;-63
2022/10/20 03:24:28;;;;;;;4.55;1.70;;;;;;;12.50;40.17;100149.16;4860720;28;20046;-63
2022/10/20 03:27:23;;;;;;;3.35;1.27;;;;;;;12.40;39.56;100134.53;4883772;28;20050;-63
2022/10/20 03:30:12;;;;;;;11.35;1.60;;;;;;;12.45;40.27;100135.28;4884688;28;20829;-63
2022/10/20 03:32:53;;;;;;;9.50;1.88;;;;;;;12.58;41.41;100132.34;4894305;28;20050;-63
2022/10/20 03:35:35;;;;;;;5.40;2.00;;;;;;;12.38;40.02;100089.19;4878868;28;20053;-64
2022/10/20 03:38:29;;;;;;;2.33;1.30;;;;;;;12.68;41.35;100133.81;4884462;28;20045;-63
2022/10/20 03:44:33;;;;;;;3.38;1.20;;;;;;;12.68;40.99;100125.94;4872264;28;20061;-64
2022/10/20 03:50:30;;;;;;;4.63;1.23;;;;;;;12.66;40.61;100131.25;4844869;28;20292;-63
2022/10/20 03:55:59;;;;;;;4.95;1.60;;;;;;;12.44;38.48;100120.47;4867844;28;20397;-63
2022/10/20 03:58:43;;;;;;;5.57;1.85;;;;;;;12.29;37.35;100107.78;4845203;28;20058;-63
2022/10/20 04:01:31;;;;;;;9.23;1.77;;;;;;;12.23;39.29;100111.41;4826815;28;20093;-64
2022/10/20 04:04:26;;;;;;;6.15;1.52;;;;;;;12.33;40.56;100109.44;4855138;28;20484;-63
2022/10/20 04:07:25;;;;;;;2.75;1.40;;;;;;;12.35;41.24;100104.97;4862965;28;20080;-64
2022/10/20 04:10:31;;;;;;;4.82;1.83;;;;;;;12.30;41.15;100091.13;4857883;28;20110;-63
2022/10/20 04:13:16;;;;;;;5.22;1.80;;;;;;;12.41;41.54;100090.88;4818565;28;20050;-62
2022/10/20 04:16:05;;;;;;;16.58;3.45;;;;;;;12.31;41.78;100071.91;4872328;28;20116;-62
2022/10/20 04:18:57;;;;;;;5.13;1.75;;;;;;;12.44;40.93;100102.13;4878013;28;20045;-62
2022/10/20 04:21:37;;;;;;;4.93;2.10;;;;;;;12.51;40.55;100094.97;4876693;28;20053;-62
2022/10/20 04:24:35;;;;;;;7.68;1.90;;;;;;;12.19;41.70;100025.09;4884527;28;20048;-63
2022/10/20 04:27:16;;;;;;;3.10;1.63;;;;;;;12.52;40.97;100087.03;4876069;28;20038;-63
2022/10/20 04:29:48;;;;;;;2.65;1.63;;;;;;;12.45;37.43;100088.09;4896403;28;20063;-66
2022/10/20 04:32:50;;;;;;;4.75;1.63;;;;;;;12.40;39.48;100092.63;4881065;28;20056;-63
2022/10/20 04:35:45;;;;;;;4.18;1.58;;;;;;;12.39;38.37;100096.16;4897941;28;20122;-64
2022/10/20 04:38:38;;;;;;;3.40;1.30;;;;;;;12.10;38.91;100060.22;4846616;28;20050;-63
2022/10/20 04:41:18;;;;;;;7.88;2.00;;;;;;;12.29;39.30;100102.53;4903968;28;20049;-64
2022/10/20 04:44:01;;;;;;;5.68;1.65;;;;;;;12.24;39.70;100091.31;4907486;28;20049;-63
2022/10/20 04:46:38;;;;;;;5.30;1.80;;;;;;;12.30;40.21;100085.91;4905180;28;20055;-64
2022/10/20 04:49:19;;;;;;;10.00;1.70;;;;;;;12.35;40.20;100094.50;4919021;28;20117;-63
2022/10/20 04:52:08;;;;;;;4.97;1.83;;;;;;;12.36;39.30;100091.00;4904109;28;20490;-64
2022/10/20 04:54:46;;;;;;;6.47;1.80;;;;;;;12.32;39.90;100093.72;4861262;28;20049;-63
2022/10/20 04:57:24;;;;;;;4.57;1.85;;;;;;;12.33;40.24;100104.19;4880213;28;20075;-63
2022/10/20 05:00:26;;;;;;;3.97;1.50;;;;;;;12.28;40.36;100092.94;4906343;28;20041;-63
2022/10/20 05:03:13;;;;;;;4.97;1.73;;;;;;;12.23;41.08;100102.66;4889940;28;20053;-64
2022/10/20 05:05:52;;;;;;;4.53;1.70;;;;;;;12.17;41.55;100095.00;4890389;28;20049;-64
2022/10/20 05:08:42;;;;;;;4.13;1.60;;;;;;;12.09;41.64;100089.94;4902035;28;20083;-63
2022/10/20 05:11:32;;;;;;;4.60;1.80;;;;;;;12.00;43.67;100091.03;4930551;28;20068;-66
2022/10/20 05:14:28;;;;;;;11.20;1.65;;;;;;;11.92;43.83;100090.34;4917690;28;20063;-62
2022/10/20 05:17:06;;;;;;;8.00;1.65;;;;;;;11.87;44.73;100076.53;4874914;28;20049;-63
2022/10/20 05:20:03;;;;;;;7.93;1.88;;;;;;;11.82;45.23;100083.59;4904561;28;20616;-63
2022/10/20 05:22:43;;;;;;;10.95;2.25;;;;;;;11.71;44.72;100075.16;4903277;28;20101;-65
2022/10/20 05:25:32;;;;;;;5.22;1.85;;;;;;;11.41;44.62;100038.34;4861736;28;20049;-63
2022/10/20 05:28:13;;;;;;;6.50;1.88;;;;;;;11.66;44.54;100094.44;4876381;28;20091;-63
2022/10/20 05:31:04;;;;;;;6.00;2.20;;;;;;;11.63;45.41;100099.75;4915776;28;20054;-63
2022/10/20 05:33:57;;;;;;;8.30;2.50;;;;;;;11.53;45.67;100093.00;4891143;28;20045;-64
2022/10/20 05:36:48;;;;;;;11.93;2.50;;;;;;;11.55;47.04;100112.13;4878271;28;20109;-64
2022/10/20 05:42:28;;;;;;;5.88;2.08;;;;;;;11.52;48.10;100108.75;4884060;28;20034;-63
2022/10/20 05:45:16;;;;;;;3.95;1.50;;;;;;;11.43;48.59;100092.38;4906980;28;20128;-63
2022/10/20 05:50:45;;;;;;;7.00;2.35;;;;;;;11.48;48.91;100121.00;4889709;28;20185;-63
2022/10/20 05:53:51;;;;;;;11.55;2.05;;;;;;;11.43;49.66;100117.63;4909581;28;20041;-64
2022/10/20 05:56:37;;;;;;;7.78;2.10;;;;;;;11.43;49.36;100122.88;4854681;28;20104;-63
2022/10/20 05:59:34;;;;;;;6.70;1.85;;;;;;;11.32;48.71;100114.41;4892422;28;20107;-62
2022/10/20 06:02:20;;;;;;;12.50;2.42;;;;;;;11.26;49.43;100114.53;4878802;28;20301;-64
2022/10/20 06:05:20;;;;;;;7.88;1.95;;;;;;;11.18;50.63;100112.97;4917408;28;20108;-64
2022/10/20 06:08:11;;;;;;;8.75;2.95;;;;;;;11.14;51.08;100111.28;4903373;28;20083;-64
2022/10/20 06:10:54;;;;;;;6.95;2.20;;;;;;;11.12;51.14;100110.47;4903067;28;20087;-64
2022/10/20 06:13:41;;;;;;;9.40;1.77;;;;;;;10.54;50.55;100009.75;4908704;28;20045;-63
2022/10/20 06:16:37;;;;;;;9.38;2.15;;;;;;;10.97;51.66;100109.03;4907972;28;20068;-64
2022/10/20 06:19:30;;;;;;;7.05;1.90;;;;;;;10.92;51.58;100112.63;4903377;28;20046;-64
2022/10/20 06:22:08;;;;;;;6.65;2.10;;;;;;;10.83;51.98;100104.97;4898423;28;20241;-63
2022/10/20 06:24:51;;;;;;;8.68;1.98;;;;;;;10.74;51.97;100106.88;4894989;28;20272;-64
2022/10/20 06:27:31;;;;;;;10.07;2.70;;;;;;;10.70;52.07;100105.19;4889915;28;20098;-65
2022/10/20 06:30:12;;;;;;;5.35;1.58;;;;;;;10.66;51.53;100108.78;4913571;28;20056;-63
2022/10/20 06:35:43;;;;;;;6.32;2.10;;;;;;;10.49;52.02;100110.84;4874778;28;20072;-63
2022/10/20 06:38:30;;;;;;;20.13;5.22;;;;;;;10.43;52.55;100121.41;4923830;28;20499;-64
2022/10/20 06:41:10;;;;;;;10.18;3.58;;;;;;;10.30;51.47;100121.63;4904074;28;20048;-64
2022/10/20 06:46:59;;;;;;;10.52;3.03;;;;;;;10.11;52.40;100130.63;4879742;28;20045;-63
2022/10/20 06:49:46;;;;;;;13.07;6.13;;;;;;;10.01;53.15;100129.03;4890918;28;20044;-64
2022/10/20 06:52:22;;;;;;;8.23;2.80;;;;;;;9.93;54.49;100137.88;4913180;28;20061;-64
2022/10/20 06:55:00;;;;;;;10.18;2.90;;;;;;;9.83;53.43;100136.28;4917421;28;20122;-63
2022/10/20 06:57:51;;;;;;;8.75;2.25;;;;;;;9.77;52.93;100131.16;4899819;28;20077;-64
2022/10/20 07:00:42;;;;;;;14.18;3.80;;;;;;;9.68;52.79;100152.16;4858960;28;20291;-64
2022/10/20 07:03:30;;;;;;;10.77;2.72;;;;;;;9.55;53.95;100155.84;4893860;28;20353;-64
2022/10/20 07:06:30;;;;;;;8.75;3.42;;;;;;;9.44;53.53;100162.06;4889169;28;20048;-63
2022/10/20 07:09:24;;;;;;;12.25;3.15;;;;;;;9.35;52.59;100164.78;4898953;28;20064;-63
2022/10/20 07:12:18;;;;;;;8.75;2.92;;;;;;;9.19;52.58;100152.84;4871125;28;20052;-64
2022/10/20 07:15:34;;;;;;;10.48;3.17;;;;;;;9.19;53.07;100168.47;4934280;28;20136;-63
2022/10/20 07:18:58;;;;;;;9.65;2.78;;;;;;;9.05;54.35;100172.09;4912481;28;20061;-63
2022/10/20 07:22:18;;;;;;;11.15;2.90;;;;;;;8.93;55.14;100172.22;4918747;28;20052;-63
2022/10/20 07:25:32;;;;;;;11.25;3.00;;;;;;;8.79;55.85;100168.94;4901077;28;20219;-64
2022/10/20 07:32:31;;;;;;;7.30;2.00;;;;;;;8.56;56.16;100170.03;4821458;28;20046;-64
2022/10/20 07:35:44;;;;;;;11.15;3.08;;;;;;;8.45;57.35;100166.66;4850016;28;20415;-63
2022/10/20 07:38:56;;;;;;;7.75;3.30;;;;;;;8.36;58.06;100169.31;4861257;28;20100;-63
2022/10/20 07:42:08;;;;;;;11.73;4.45;;;;;;;8.24;58.62;100169.41;4848886;28;20051;-63
2022/10/20 07:45:32;;;;;;;12.90;3.42;;;;;;;8.12;59.29;100165.19;4848224;28;20042;-64
2022/10/20 07:48:48;;;;;;;7.55;3.20;;;;;;;7.97;59.45;100171.38;4842431;28;20047;-64
2022/10/20 07:52:07;;;;;;;15.77;3.80;;;;;;;7.88;59.69;100181.81;4860769;28;20053;-64
2022/10/20 07:59:09;;;;;;;;;;;;;;;;;;;;;
2022/10/20 08:03:11;;;;;;;17.08;5.63;;;;;;;7.72;61.27;100189.72;4815191;28;20063;-64
2022/10/20 08:09:30;;;;;;;10.57;4.68;;;;;;;7.57;61.79;100202.81;4885186;28;20048;-65
2022/10/20 08:12:15;;;;;;;10.15;4.45;;;;;;;7.50;61.98;100206.31;4901282;28;20053;-63
2022/10/20 08:15:01;;;;;;;20.08;4.28;;;;;;;7.43;62.53;100199.41;4851974;28;20479;-64
2022/10/20 08:18:14;;;;;;;12.85;5.47;;;;;;;7.28;62.93;100206.41;4899865;28;20056;-64
2022/10/20 08:21:12;;;;;;;13.45;5.82;;;;;;;7.09;64.03;100182.22;4893796;28;20069;-64
2022/10/20 08:23:56;;;;;;;16.30;5.45;;;;;;;7.11;63.98;100213.38;4895898;28;20099;-65
2022/10/20 08:26:39;;;;;;;13.65;4.75;;;;;;;6.99;64.25;100223.81;4880683;28;20056;-65
2022/10/20 08:29:24;;;;;;;10.02;3.72;;;;;;;6.88;65.06;100232.50;4859335;28;20049;-64
2022/10/20 08:32:02;;;;;;;10.02;3.67;;;;;;;6.83;65.37;100234.25;4865036;28;20048;-64
2022/10/20 08:34:43;;;;;;;15.18;5.35;;;;;;;6.76;65.79;100236.84;4903531;28;20096;-64
2022/10/20 08:37:35;;;;;;;;;;;;;;;6.66;65.86;100236.00;4894053;28;20079;-63
2022/10/20 08:40:27;;;;;;;21.35;8.60;;;;;;;6.55;65.70;100237.75;4890007;28;19930;-64
2022/10/20 08:43:01;;;;;;;29.50;11.98;;;;;;;6.44;65.83;100230.81;4862321;28;20052;-64
2022/10/20 08:45:46;;;;;;;37.60;16.10;;;;;;;6.34;66.09;100242.06;4902037;28;20050;-64
2022/10/20 08:48:28;;;;;;;35.75;15.10;;;;;;;6.23;66.77;100251.56;4885820;28;20482;-64
2022/10/20 08:51:07;;;;;;;31.35;13.80;;;;;;;6.14;66.90;100257.63;4861484;28;20050;-64
2022/10/20 08:53:42;;;;;;;28.35;12.80;;;;;;;6.10;67.33;100255.00;4898018;28;20049;-64
2022/10/20 08:56:26;;;;;;;28.50;11.50;;;;;;;6.03;67.80;100260.19;4893046;28;20420;-65
2022/10/20 08:59:25;;;;;;;24.90;11.93;;;;;;;5.99;67.96;100279.22;4880348;28;20412;-64
2022/10/20 09:02:24;;;;;;;22.48;10.38;;;;;;;5.90;68.03;100286.91;4887268;28;20116;-64
2022/10/20 09:05:12;;;;;;;22.23;10.07;;;;;;;5.80;68.39;100282.56;4882720;28;20057;-64
2022/10/20 09:07:52;;;;;;;19.85;9.57;;;;;;;5.80;68.93;100292.94;4894735;28;20070;-64
2022/10/20 09:10:36;;;;;;;23.40;10.02;;;;;;;5.55;69.17;100259.16;4903808;28;20355;-63
2022/10/20 09:13:36;;;;;;;17.38;7.93;;;;;;;5.60;69.52;100274.72;4888473;28;20051;-63
2022/10/20 09:16:37;;;;;;;19.02;7.78;;;;;;;5.54;70.30;100279.84;4880455;28;20052;-64
2022/10/20 09:22:41;;;;;;;36.50;15.77;;;;;;;5.68;72.17;100292.88;4871625;28;20058;-63
2022/10/20 09:25:33;;;;;;;24.75;12.18;;;;;;;5.34;72.37;100246.09;4866460;28;20140;-64
2022/10/20 09:28:33;;;;;;;23.38;9.68;;;;;;;5.56;72.24;100304.91;4865682;28;20485;-63
2022/10/20 09:31:34;;;;;;;16.80;8.63;;;;;;;5.43;71.86;100291.91;4850055;28;20423;-64
2022/10/20 09:37:24;;;;;;;20.55;7.53;;;;;;;5.48;72.04;100311.81;4852860;28;20049;-63
2022/10/20 09:40:19;;;;;;;21.55;6.72;;;;;;;5.34;72.40;100313.44;4850806;28;20042;-63
2022/10/20 09:46:47;;;;;;;71.47;30.17;;;;;;;4.65;73.63;100311.25;4867807;28;20362;-64
2022/10/20 09:49:34;;;;;;;31.98;17.27;;;;;;;4.38;74.55;100321.34;4829197;28;20182;-65
2022/10/20 09:52:38;;;;;;;19.67;10.32;;;;;;;4.14;75.94;100322.81;4861158;28;20041;-64
2022/10/20 09:55:41;;;;;;;19.83;7.70;;;;;;;4.02;77.50;100323.56;4844271;28;20080;-64
2022/10/20 09:58:33;;;;;;;15.73;6.40;;;;;;;4.02;78.78;100314.94;4847862;28;20050;-64
2022/10/20 10:01:11;;;;;;;22.17;6.55;;;;;;;4.04;79.02;100321.00;4854821;28;20307;-64
2022/10/20 10:06:53;;;;;;;13.73;4.03;;;;;;;3.87;79.94;100319.09;4881959;28;19926;-64
2022/10/20 10:09:54;;;;;;;10.05;3.60;;;;;;;3.71;80.63;100322.34;4875094;28;20046;-64
2022/10/20 10:15:40;;;;;;;14.05;3.30;;;;;;;3.51;82.00;100313.47;4873599;28;20315;-64
2022/10/20 10:18:41;;;;;;;12.25;3.25;;;;;;;3.48;82.95;100328.94;4853691;28;20049;-64
2022/10/20 10:21:51;;;;;;;6.60;2.90;;;;;;;3.45;83.48;100328.03;4883116;28;20452;-66
2022/10/20 10:24:55;;;;;;;9.25;3.30;;;;;;;3.43;84.22;100331.44;4865145;28;20053;-65
2022/10/20 10:28:03;;;;;;;106.60;36.08;;;;;;;3.43;84.95;100331.44;4874289;28;20088;-65
2022/10/20 10:30:52;;;;;;;120.53;37.67;;;;;;;3.45;85.26;100340.97;4882188;28;20076;-64
2022/10/20 10:33:41;;;;;;;174.40;49.90;;;;;;;3.43;85.75;100323.69;4900751;28;20057;-65
2022/10/20 10:36:32;;;;;;;24.83;7.32;;;;;;;3.53;85.87;100329.84;4867553;28;20534;-64
2022/10/20 10:39:15;;;;;;;63.85;17.23;;;;;;;3.62;86.43;100322.22;4893468;28;20147;-64
2022/10/20 10:42:17;;;;;;;19.77;5.80;;;;;;;3.65;85.87;100322.28;4881640;28;20053;-65
2022/10/20 10:45:03;;;;;;;30.15;5.60;;;;;;;3.45;86.08;100278.97;4907032;28;20064;-64
2022/10/20 10:48:23;;;;;;;96.60;29.90;;;;;;;3.69;86.10;100326.59;4888248;28;20089;-70
2022/10/20 10:51:04;;;;;;;44.95;14.27;;;;;;;3.64;86.77;100313.66;4883738;28;20049;-66
2022/10/20 10:54:18;;;;;;;55.03;19.35;;;;;;;3.56;86.92;100306.66;4901163;28;20067;-64
2022/10/20 10:57:23;;;;;;;24.15;11.20;;;;;;;3.73;87.41;100343.03;4909200;28;20049;-62
2022/10/20 11:00:00;;;;;;;12.55;5.53;;;;;;;3.78;87.14;100338.78;4893765;28;20153;-62
2022/10/20 11:03:04;;;;;;;14.15;4.22;;;;;;;3.86;87.36;100343.19;4881459;28;20045;-63
2022/10/20 11:06:07;;;;;;;9.60;2.78;;;;;;;3.97;87.61;100334.69;4917480;28;20046;-64
2022/10/20 11:09:18;;;;;;;9.30;3.28;;;;;;;4.01;87.29;100347.69;4894790;28;20040;-64
2022/10/20 11:12:45;;;;;;;10.02;3.20;;;;;;;4.01;86.87;100349.41;4812799;28;20051;-61
2022/10/20 11:15:48;;;;;;;13.77;3.42;;;;;;;3.95;86.80;100347.63;4892682;28;20072;-61
2022/10/20 11:18:48;;;;;;;7.43;3.25;;;;;;;4.02;87.02;100348.53;4910283;28;20044;-61
2022/10/20 11:21:40;;;;;;;13.90;6.22;;;;;;;4.14;87.00;100359.03;4876245;28;20055;-62
2022/10/20 11:24:40;;;;;;;14.60;3.47;;;;;;;4.19;86.08;100352.19;4920681;28;20041;-63
2022/10/20 11:30:45;;;;;;;14.85;4.45;;;;;;;4.33;85.82;100353.22;4932739;28;20060;-62
2022/10/20 11:33:32;;;;;;;13.68;3.25;;;;;;;4.36;85.52;100354.97;4903654;28;20222;-62
2022/10/20 11:36:18;;;;;;;12.38;3.65;;;;;;;4.38;85.01;100352.41;4912424;28;20050;-61
2022/10/20 11:39:02;;;;;;;10.95;3.97;;;;;;;4.39;84.45;100356.72;4888425;28;21332;-62
2022/10/20 11:41:56;;;;;;;33.53;15.30;;;;;;;4.28;84.49;100352.28;4932252;28;20334;-64
2022/10/20 11:44:44;;;;;;;40.38;16.30;;;;;;;4.10;84.66;100352.09;4904826;28;20049;-61
2022/10/20 11:47:36;;;;;;;30.70;11.60;;;;;;;3.97;84.87;100350.19;4921522;28;20120;-64
2022/10/20 11:50:19;;;;;;;73.50;31.25;;;;;;;3.76;85.24;100343.06;4877416;28;20055;-64
2022/10/20 11:53:23;;;;;;;23.30;9.23;;;;;;;3.66;86.87;100352.41;4902197;28;20045;-62
2022/10/20 11:56:26;;;;;;;16.10;5.28;;;;;;;3.70;87.25;100361.97;4928215;28;20343;-64
2022/10/20 11:59:36;;;;;;;11.45;5.85;;;;;;;3.31;87.48;100295.97;4858282;28;20163;-64
2022/10/20 12:03:06;;;;;;;20.38;6.70;;;;;;;3.73;87.51;100362.00;4876377;28;20379;-61
2022/10/20 12:06:09;;;;;;;13.60;6.85;;;;;;;3.71;87.15;100374.03;4804451;28;20050;-61
2022/10/20 12:09:23;;;;;;;14.52;5.72;;;;;;;3.66;86.87;100365.34;4852829;28;20251;-64
2022/10/20 12:12:06;;;;;;;19.20;5.68;;;;;;;3.53;86.80;100371.19;4842105;28;20048;-65
2022/10/20 12:14:44;;;;;;;12.82;5.00;;;;;;;3.31;86.37;100373.47;4851056;28;20066;-62
2022/10/20 12:17:39;;;;;;;16.33;4.55;;;;;;;3.25;86.80;100373.38;4852077;28;20110;-65
2022/10/20 12:21:01;;;;;;;17.98;4.00;;;;;;;3.27;87.46;100382.03;4847346;28;20080;-62
2022/10/20 12:24:08;;;;;;;8.95;4.03;;;;;;;3.21;87.25;100381.91;4788380;28;20058;-64
2022/10/20 12:26:56;;;;;;;11.57;4.93;;;;;;;3.18;87.94;100387.03;4835870;28;20066;-65
2022/10/20 12:30:29;;;;;;;13.35;3.35;;;;;;;3.34;88.22;100378.66;4856446;28;20059;-66
2022/10/20 12:33:36;;;;;;;14.27;4.30;;;;;;;3.40;88.12;100378.78;4744053;28;20047;-64
2022/10/20 12:36:38;;;;;;;35.85;18.15;;;;;;;3.40;88.06;100383.94;4874329;28;20087;-65
2022/10/20 12:42:31;;;;;;;10.45;5.00;;;;;;;3.13;88.12;100378.34;4886870;28;20053;-65
2022/10/20 12:45:25;;;;;;;10.90;3.92;;;;;;;3.21;88.41;100392.25;4911187;28;20045;-62
2022/10/20 12:48:27;;;;;;;14.60;3.92;;;;;;;2.98;88.54;100368.66;4911177;28;20278;-64
2022/10/20 12:51:31;;;;;;;14.35;3.95;;;;;;;3.12;88.73;100387.81;4906317;28;20080;-64
2022/10/20 12:54:33;;;;;;;7.43;3.58;;;;;;;3.22;88.78;100399.13;4919824;28;20049;-64
2022/10/20 12:57:44;;;;;;;8.55;3.78;;;;;;;3.17;89.32;100390.44;4833738;28;20230;-61
2022/10/20 13:00:48;;;;;;;9.68;3.28;;;;;;;3.25;89.31;100404.38;4848773;28;20056;-62
2022/10/20 13:03:49;;;;;;;13.25;4.05;;;;;;;3.25;89.41;100404.38;4879755;28;20376;-62
2022/10/20 13:06:46;;;;;;;8.10;3.60;;;;;;;2.95;89.39;100369.47;4895788;28;20052;-62
2022/10/20 13:09:31;;;;;;;15.88;3.72;;;;;;;3.16;89.31;100414.53;4892574;28;20366;-62
2022/10/20 13:12:41;;;;;;;12.48;4.97;;;;;;;3.10;89.70;100410.16;4857742;28;20042;-62
2022/10/20 13:15:35;;;;;;;16.90;4.45;;;;;;;3.05;89.90;100398.03;4861150;28;20862;-64
2022/10/20 13:18:24;;;;;;;6.43;3.58;;;;;;;3.09;90.13;100407.53;4917619;28;20048;-62
2022/10/20 13:21:26;;;;;;;9.70;3.70;;;;;;;3.09;90.39;100407.53;4877000;28;20037;-65
2022/10/20 13:24:20;;;;;;;11.10;3.33;;;;;;;2.42;90.45;100299.78;4888441;28;20094;-66
2022/10/20 13:30:28;;;;;;;13.57;4.80;;;;;;;3.10;90.53;100409.28;4899949;28;20084;-65
2022/10/20 13:33:13;;;;;;;38.50;13.98;;;;;;;3.07;90.33;100411.81;4842990;28;20045;-65
2022/10/20 13:36:25;;;;;;;14.57;3.63;;;;;;;3.01;90.78;100400.53;4893313;28;20095;-62
2022/10/20 13:39:13;;;;;;;12.02;3.47;;;;;;;2.97;89.97;100421.09;4863222;28;20526;-65
2022/10/20 13:42:05;;;;;;;14.05;3.38;;;;;;;3.02;91.02;100433.28;4878368;28;20052;-63
2022/10/20 13:44:58;;;;;;;10.00;3.60;;;;;;;3.13;91.25;100435.16;4904183;28;20533;-64
2022/10/20 13:47:57;;;;;;;16.65;4.00;;;;;;;3.24;91.12;100455.16;4866990;28;20041;-64
2022/10/20 13:50:58;;;;;;;8.73;3.60;;;;;;;3.15;90.19;100464.47;4856437;28;20104;-62
2022/10/20 13:53:37;;;;;;;11.20;4.55;;;;;;;3.08;90.55;100457.44;4894399;28;20055;-62
2022/10/20 13:56:32;;;;;;;15.48;4.40;;;;;;;3.09;91.13;100443.69;4899220;28;20050;-65
2022/10/20 13:59:32;;;;;;;15.15;5.95;;;;;;;3.25;90.82;100456.03;4898833;28;20045;-63
2022/10/20 14:02:30;;;;;;;23.05;9.68;;;;;;;3.22;90.84;100461.13;4908087;28;20044;-62
2022/10/20 14:05:18;;;;;;;20.95;9.32;;;;;;;3.19;91.24;100455.91;4928327;28;20497;-64
2022/10/20 14:08:18;;;;;;;13.13;4.50;;;;;;;2.87;91.21;100420.09;4919121;28;20060;-65
2022/10/20 14:11:16;;;;;;;11.77;3.70;;;;;;;2.86;91.59;100420.06;4903623;28;20040;-62
2022/10/20 14:14:20;;;;;;;11.98;4.13;;;;;;;3.08;91.78;100458.31;4852629;28;20068;-65
2022/10/20 14:17:11;;;;;;;12.30;3.70;;;;;;;3.03;91.57;100444.47;4898289;28;20468;-62
2022/10/20 14:19:50;;;;;;;13.02;3.78;;;;;;;3.15;91.96;100475.66;4898574;28;20347;-62
2022/10/20 14:22:33;;;;;;;13.27;4.25;;;;;;;3.18;92.17;100475.69;4899264;28;20061;-61
2022/10/20 14:25:41;;;;;;;12.30;4.30;;;;;;;3.17;91.36;100483.41;4929494;28;20068;-62
2022/10/20 14:28:34;;;;;;;12.60;4.07;;;;;;;3.09;91.66;100478.13;4910970;28;20098;-64
2022/10/20 14:31:16;;;;;;;12.50;4.15;;;;;;;3.00;91.12;100478.84;4932255;28;20041;-66
2022/10/20 14:33:59;;;;;;;9.13;3.45;;;;;;;2.80;91.00;100495.69;4918764;28;20049;-65
2022/10/20 14:36:48;;;;;;;8.23;3.78;;;;;;;2.83;91.70;100485.41;4882432;28;20070;-64
2022/10/20 14:39:56;;;;;;;9.43;3.40;;;;;;;2.93;91.74;100504.50;4917114;28;20054;-61
2022/10/20 14:43:15;;;;;;;10.75;4.47;;;;;;;2.88;91.41;100517.31;4945793;28;20055;-61
2022/10/20 14:46:06;;;;;;;6.72;3.80;;;;;;;2.85;90.77;100512.13;4914732;28;20099;-61